createdAt,value
2022-12-17T00:00:29.563Z,87.6
2022-12-17T00:01:31.514Z,87.6
2022-12-17T00:02:33.634Z,87.5
2022-12-17T00:03:36.031Z,87.7
2022-12-17T00:04:37.519Z,88.1
2022-12-17T00:05:39.558Z,88.1
2022-12-17T00:06:41.515Z,88.3
2022-12-17T00:07:43.527Z,88.5
2022-12-17T00:08:46.519Z,88.4
2022-12-17T00:09:50.383Z,88.1
2022-12-17T00:10:51.556Z,88.1
2022-12-17T00:11:53.523Z,87.9
2022-12-17T00:12:56.325Z,88.1
2022-12-17T00:13:58.522Z,88.1
2022-12-17T00:15:00.878Z,87.9
2022-12-17T00:16:02.581Z,87.5
2022-12-17T00:17:05.552Z,87.7
2022-12-17T00:18:08.520Z,87.9
2022-12-17T00:19:10.533Z,87.9
2022-12-17T00:20:12.545Z,88.1
2022-12-17T00:21:15.603Z,88.1
2022-12-17T00:22:17.555Z,88.3
2022-12-17T00:23:19.534Z,88.4
2022-12-17T00:24:21.529Z,88.2
2022-12-17T00:25:23.535Z,87.8
2022-12-17T00:26:25.592Z,87.9
2022-12-17T00:27:27.523Z,88.2
2022-12-17T00:28:29.528Z,88.5
2022-12-17T00:29:31.537Z,88.6
2022-12-17T00:30:33.568Z,88.9
2022-12-17T00:31:35.670Z,89
2022-12-17T00:32:37.531Z,89.2
2022-12-17T00:33:39.527Z,89.6
2022-12-17T00:34:41.528Z,89.6
2022-12-17T00:35:43.530Z,89.7
2022-12-17T00:36:45.574Z,89.4
2022-12-17T00:37:47.539Z,89.2
2022-12-17T00:38:49.537Z,89
2022-12-17T00:39:53.595Z,89.3
2022-12-17T00:40:53.537Z,89
2022-12-17T00:41:56.563Z,88.8
2022-12-17T00:42:58.539Z,89
2022-12-17T00:44:02.130Z,88.8
2022-12-17T00:45:02.612Z,88.7
2022-12-17T00:46:05.601Z,89.2
2022-12-17T00:47:08.588Z,89.2
2022-12-17T00:48:10.572Z,89.2
2022-12-17T00:49:12.544Z,89.3
2022-12-17T00:50:15.540Z,89.3
2022-12-17T00:51:17.560Z,89.3
2022-12-17T00:52:32.881Z,89.4
2022-12-17T00:53:21.542Z,89.4
2022-12-17T00:54:23.546Z,89.5
2022-12-17T00:55:25.540Z,89.6
2022-12-17T00:56:27.546Z,89.7
2022-12-17T00:57:29.551Z,89.9
2022-12-17T00:58:31.619Z,90.1
2022-12-17T00:59:34.548Z,90.2
2022-12-17T01:00:36.567Z,90.2
2022-12-17T01:01:38.828Z,90.2
2022-12-17T01:02:40.737Z,90.3
2022-12-17T01:03:42.589Z,90.3
2022-12-17T01:04:44.550Z,90.3
2022-12-17T01:05:46.558Z,90.5
2022-12-17T01:06:48.558Z,90.7
2022-12-17T01:07:50.598Z,90.8
2022-12-17T01:08:52.555Z,90.9
2022-12-17T01:09:54.555Z,91
2022-12-17T01:10:57.555Z,91.1
2022-12-17T01:11:59.564Z,91
2022-12-17T01:13:02.022Z,90.6
2022-12-17T01:14:06.612Z,90.5
2022-12-17T01:15:05.611Z,90.6
2022-12-17T01:16:09.627Z,90.7
2022-12-17T01:17:11.560Z,90.3
2022-12-17T01:18:13.564Z,90.2
2022-12-17T01:19:16.137Z,90.6
2022-12-17T01:21:02.902Z,90.7
2022-12-17T01:22:02.897Z,89.4
2022-12-17T01:23:02.874Z,88.9
2022-12-17T01:24:02.919Z,88.9
2022-12-17T01:25:02.886Z,88.5
2022-12-17T01:26:02.887Z,88.7
2022-12-17T01:27:02.888Z,88.7
2022-12-17T01:28:02.882Z,88.5
2022-12-17T01:29:02.891Z,88.7
2022-12-17T01:30:03.747Z,88.9
2022-12-17T01:31:03.225Z,89
2022-12-17T01:32:02.949Z,89.2
2022-12-17T01:33:02.881Z,89.3
2022-12-17T01:34:02.891Z,89.4
2022-12-17T01:35:02.882Z,89.3
2022-12-17T01:36:02.885Z,88.8
2022-12-17T01:37:02.932Z,88.8
2022-12-17T01:38:02.890Z,89.3
2022-12-17T01:39:02.915Z,88.8
2022-12-17T01:40:02.914Z,88.7
2022-12-17T01:41:02.895Z,88.9
2022-12-17T01:43:05.589Z,89.5
2022-12-17T01:44:07.575Z,89.5
2022-12-17T01:45:10.581Z,89.6
2022-12-17T01:46:12.664Z,89.9
2022-12-17T01:47:14.578Z,89.8
2022-12-17T01:48:16.580Z,89.9
2022-12-17T01:49:18.579Z,89.8
2022-12-17T01:50:21.600Z,89.8
2022-12-17T01:51:23.565Z,90.1
2022-12-17T01:52:25.580Z,90.8
2022-12-17T01:53:28.576Z,90.8
2022-12-17T01:54:30.611Z,90.7
2022-12-17T01:55:32.602Z,90.7
2022-12-17T01:56:34.583Z,90.9
2022-12-17T01:57:36.580Z,91.1
2022-12-17T01:58:38.635Z,91
2022-12-17T01:59:40.583Z,90.9
2022-12-17T02:00:42.683Z,90.6
2022-12-17T02:01:44.841Z,90.7
2022-12-17T02:02:46.691Z,90.7
2022-12-17T02:03:48.583Z,90.6
2022-12-17T02:04:51.595Z,90.8
2022-12-17T02:05:53.628Z,90.7
2022-12-17T02:06:55.590Z,90.5
2022-12-17T02:07:57.592Z,90.5
2022-12-17T02:09:01.810Z,90.6
2022-12-17T02:10:02.582Z,90.5
2022-12-17T02:11:05.659Z,90.6
2022-12-17T02:12:08.592Z,91.2
2022-12-17T02:13:10.591Z,91.4
2022-12-17T02:14:13.631Z,91
2022-12-17T02:15:15.592Z,90.4
2022-12-17T02:16:17.688Z,89.7
2022-12-17T02:17:19.589Z,89.7
2022-12-17T02:18:22.593Z,89.9
2022-12-17T02:19:24.599Z,90
2022-12-17T02:20:26.600Z,90.2
2022-12-17T02:21:29.643Z,90.2
2022-12-17T02:22:32.598Z,90.1
2022-12-17T02:23:35.093Z,90.4
2022-12-17T02:24:36.599Z,90.5
2022-12-17T02:25:38.602Z,90.4
2022-12-17T02:26:41.629Z,90.2
2022-12-17T02:27:43.604Z,90.1
2022-12-17T02:28:45.618Z,89.8
2022-12-17T02:29:47.634Z,89.5
2022-12-17T02:30:49.622Z,89.1
2022-12-17T02:31:51.707Z,89
2022-12-17T02:32:53.600Z,89
2022-12-17T02:33:55.603Z,88.8
2022-12-17T02:34:58.603Z,88.5
2022-12-17T02:36:00.614Z,88.6
2022-12-17T02:37:02.631Z,88.6
2022-12-17T02:38:05.625Z,89
2022-12-17T02:39:08.600Z,89.4
2022-12-17T02:40:10.620Z,89.5
2022-12-17T02:41:12.612Z,89.5
2022-12-17T02:42:14.628Z,89.9
2022-12-17T02:43:16.616Z,89.7
2022-12-17T02:44:18.607Z,89.5
2022-12-17T02:45:20.623Z,89.6
2022-12-17T02:46:23.668Z,89.7
2022-12-17T02:47:25.641Z,89.6
2022-12-17T02:48:27.612Z,90
2022-12-17T02:49:29.609Z,89.7
2022-12-17T02:50:31.739Z,89.6
2022-12-17T02:51:34.617Z,89.6
2022-12-17T02:52:36.611Z,89.8
2022-12-17T02:53:39.622Z,90.1
2022-12-17T02:54:41.612Z,90
2022-12-17T02:55:43.642Z,89.9
2022-12-17T02:56:45.619Z,89
2022-12-17T02:57:53.510Z,88.6
2022-12-17T02:58:49.616Z,88.4
2022-12-17T02:59:51.618Z,88.5
2022-12-17T03:00:53.703Z,88.1
2022-12-17T03:01:56.938Z,88.4
2022-12-17T03:02:58.735Z,88.6
2022-12-17T03:04:00.639Z,88.7
2022-12-17T03:05:21.478Z,88.7
2022-12-17T03:06:05.650Z,88.7
2022-12-17T03:07:07.656Z,89.8
2022-12-17T03:08:09.627Z,89.4
2022-12-17T03:09:11.627Z,89.2
2022-12-17T03:10:13.631Z,88.9
2022-12-17T03:11:15.634Z,88.6
2022-12-17T03:12:17.645Z,89.3
2022-12-17T03:13:19.624Z,89
2022-12-17T03:14:21.634Z,89.3
2022-12-17T03:15:24.624Z,88.3
2022-12-17T03:16:26.733Z,88.2
2022-12-17T03:17:28.654Z,88.4
2022-12-17T03:18:30.640Z,88.6
2022-12-17T03:19:32.636Z,88.4
2022-12-17T03:20:35.628Z,88.2
2022-12-17T03:21:37.638Z,87.6
2022-12-17T03:22:39.659Z,86.8
2022-12-17T03:23:41.646Z,87.3
2022-12-17T03:24:43.637Z,87.7
2022-12-17T03:25:45.637Z,87.7
2022-12-17T03:26:47.634Z,88
2022-12-17T03:27:49.681Z,88
2022-12-17T03:28:51.632Z,87.6
2022-12-17T03:29:53.643Z,88
2022-12-17T03:30:55.702Z,88.1
2022-12-17T03:31:57.654Z,87.7
2022-12-17T03:33:00.687Z,87.6
2022-12-17T03:34:02.642Z,87.6
2022-12-17T03:35:05.667Z,87.9
2022-12-17T03:36:08.643Z,88.2
2022-12-17T03:37:10.642Z,88.5
2022-12-17T03:39:14.666Z,88.8
2022-12-17T03:40:16.638Z,88.7
2022-12-17T03:41:18.648Z,89
2022-12-17T03:42:20.643Z,89.2
2022-12-17T03:43:22.647Z,89.3
2022-12-17T03:44:24.843Z,89.4
2022-12-17T03:45:26.655Z,89.4
2022-12-17T03:46:29.697Z,89.3
2022-12-17T03:47:32.647Z,89.3
2022-12-17T03:48:34.655Z,89.4
2022-12-17T03:49:36.674Z,89.6
2022-12-17T03:50:38.655Z,89.7
2022-12-17T03:51:40.654Z,89.5
2022-12-17T03:52:42.650Z,89.4
2022-12-17T03:53:44.655Z,89.4
2022-12-17T03:54:46.667Z,90
2022-12-17T03:55:48.660Z,90.3
2022-12-17T03:56:50.650Z,90
2022-12-17T03:57:52.657Z,90
2022-12-17T03:58:54.657Z,89.9
2022-12-17T03:59:56.654Z,90.3
2022-12-17T04:00:58.698Z,90.8
2022-12-17T04:02:00.776Z,90.5
2022-12-17T04:03:02.787Z,90.3
2022-12-17T04:04:05.728Z,90.7
2022-12-17T04:05:08.659Z,90.6
2022-12-17T04:06:10.695Z,90.5
2022-12-17T04:07:12.662Z,90.6
2022-12-17T04:08:15.656Z,90.6
2022-12-17T04:09:17.688Z,90.5
2022-12-17T04:10:19.660Z,90.4
2022-12-17T04:11:21.664Z,90.7
2022-12-17T04:12:23.672Z,90.7
2022-12-17T04:13:26.673Z,90.9
2022-12-17T04:14:28.700Z,91.3
2022-12-17T04:15:31.726Z,91
2022-12-17T04:16:33.669Z,90.1
2022-12-17T04:17:35.677Z,90.6
2022-12-17T04:18:38.669Z,90.5
2022-12-17T04:19:40.700Z,89.8
2022-12-17T04:20:43.670Z,89.4
2022-12-17T04:21:45.681Z,89.4
2022-12-17T04:22:47.681Z,89.5
2022-12-17T04:23:49.676Z,89.8
2022-12-17T04:24:51.676Z,90.1
2022-12-17T04:25:53.681Z,90.2
2022-12-17T04:27:09.003Z,90.1
2022-12-17T04:28:02.991Z,90.5
2022-12-17T04:29:02.987Z,90.1
2022-12-17T04:30:03.013Z,90
2022-12-17T04:31:05.770Z,90.1
2022-12-17T04:32:08.692Z,90.4
2022-12-17T04:33:11.685Z,90.4
2022-12-17T04:34:13.677Z,90.5
2022-12-17T04:35:15.680Z,91
2022-12-17T04:36:17.684Z,91.5
2022-12-17T04:37:19.713Z,91.3
2022-12-17T04:38:21.681Z,91.4
2022-12-17T04:39:23.682Z,91.4
2022-12-17T04:40:26.681Z,91.2
2022-12-17T04:41:28.683Z,91
2022-12-17T04:42:30.728Z,90.9
2022-12-17T04:43:32.811Z,91.1
2022-12-17T04:44:34.696Z,91.2
2022-12-17T04:45:37.712Z,91.6
2022-12-17T04:46:39.828Z,91.6
2022-12-17T04:47:41.698Z,91.7
2022-12-17T04:48:44.697Z,91.6
2022-12-17T04:49:46.689Z,91.3
2022-12-17T04:50:48.714Z,91.3
2022-12-17T04:51:51.729Z,91
2022-12-17T04:52:53.688Z,91.1
2022-12-17T04:53:55.686Z,91.1
2022-12-17T04:54:57.691Z,90.9
2022-12-17T04:55:59.709Z,91
2022-12-17T04:57:01.717Z,90.9
2022-12-17T04:58:03.697Z,91.7
2022-12-17T04:59:05.714Z,91.7
2022-12-17T05:00:08.710Z,91.7
2022-12-17T05:01:10.744Z,91.6
2022-12-17T05:02:13.798Z,91.7
2022-12-17T05:03:15.720Z,91.9
2022-12-17T05:04:17.700Z,92.4
2022-12-17T05:05:19.701Z,92.7
2022-12-17T05:06:22.747Z,92.7
2022-12-17T05:07:24.693Z,92.7
2022-12-17T05:08:26.705Z,92.7
2022-12-17T05:09:28.707Z,92.9
2022-12-17T05:11:03.015Z,93.6
2022-12-17T05:12:03.021Z,93.6
2022-12-17T05:13:03.019Z,93.8
2022-12-17T05:14:03.020Z,94
2022-12-17T05:15:03.024Z,94
2022-12-17T05:16:03.056Z,94.2
2022-12-17T05:17:03.020Z,94.4
2022-12-17T05:18:03.023Z,94.5
2022-12-17T05:19:03.025Z,94.7
2022-12-17T05:20:03.038Z,94.7
2022-12-17T05:21:03.020Z,94.9
2022-12-17T05:22:03.212Z,94.6
2022-12-17T05:23:03.015Z,94.3
2022-12-17T05:24:03.027Z,94.2
2022-12-17T05:25:03.028Z,94.5
2022-12-17T05:26:03.025Z,94.8
2022-12-17T05:27:03.056Z,94.4
2022-12-17T05:28:05.750Z,94.1
2022-12-17T05:29:14.020Z,94.1
2022-12-17T05:30:11.708Z,94.3
2022-12-17T05:31:13.827Z,94.4
2022-12-17T05:32:15.755Z,94.5
2022-12-17T05:33:17.721Z,94.7
2022-12-17T05:34:19.711Z,95
2022-12-17T05:35:21.731Z,95.2
2022-12-17T05:36:23.715Z,95.3
2022-12-17T05:37:25.769Z,95.5
2022-12-17T05:38:28.724Z,95.6
2022-12-17T05:39:31.720Z,95.7
2022-12-17T05:40:34.720Z,95.7
2022-12-17T05:41:37.720Z,95.8
2022-12-17T05:42:39.914Z,95.8
2022-12-17T05:43:41.726Z,96
2022-12-17T05:44:43.720Z,96.2
2022-12-17T05:45:45.715Z,96.3
2022-12-17T05:46:47.798Z,96.3
2022-12-17T05:47:49.769Z,96.4
2022-12-17T05:49:03.045Z,96.7
2022-12-17T05:50:03.045Z,96.8
2022-12-17T05:57:03.255Z,96.7
2022-12-17T05:59:03.037Z,96.9
2022-12-17T06:00:03.047Z,97.1
2022-12-17T06:01:03.097Z,97.2
2022-12-17T06:02:33.348Z,97.4
2022-12-17T06:03:21.876Z,97.4
2022-12-17T06:04:23.739Z,97.3
2022-12-17T06:05:25.732Z,97.2
2022-12-17T06:06:27.731Z,97.4
2022-12-17T06:07:29.922Z,97.2
2022-12-17T06:08:31.745Z,97.2
2022-12-17T06:09:33.736Z,97.3
2022-12-17T06:10:35.733Z,97.4
2022-12-17T06:11:37.763Z,97.4
2022-12-17T06:12:39.776Z,97.8
2022-12-17T06:13:41.740Z,97.8
2022-12-17T06:14:43.739Z,97.5
2022-12-17T06:15:46.784Z,97.5
2022-12-17T06:16:48.740Z,97.6
2022-12-17T06:17:50.779Z,97.8
2022-12-17T06:18:52.742Z,97.8
2022-12-17T06:19:55.751Z,97.6
2022-12-17T06:20:57.743Z,97.6
2022-12-17T06:21:59.750Z,97.8
2022-12-17T06:23:01.763Z,97.9
2022-12-17T06:24:03.756Z,98
2022-12-17T06:25:05.766Z,98.1
2022-12-17T06:26:09.750Z,98.1
2022-12-17T06:27:11.752Z,97.9
2022-12-17T06:28:13.752Z,97.8
2022-12-17T06:29:16.774Z,97.8
2022-12-17T06:30:19.207Z,97.9
2022-12-17T06:31:20.794Z,98
2022-12-17T06:32:22.754Z,97.8
2022-12-17T06:33:24.756Z,97.3
2022-12-17T06:34:26.748Z,97.1
2022-12-17T06:35:28.796Z,97.1
2022-12-17T06:36:30.762Z,97.1
2022-12-17T06:37:32.758Z,97.3
2022-12-17T06:38:34.759Z,97.3
2022-12-17T06:39:36.753Z,97.3
2022-12-17T06:40:38.782Z,97.4
2022-12-17T06:41:40.757Z,97.4
2022-12-17T06:42:42.758Z,97.6
2022-12-17T06:43:44.755Z,97.4
2022-12-17T06:45:48.761Z,97.4
2022-12-17T06:48:03.184Z,97
2022-12-17T06:49:03.079Z,97
2022-12-17T06:51:15.217Z,97.1
2022-12-17T06:52:02.981Z,97.2
2022-12-17T06:53:05.256Z,97.3
2022-12-17T06:54:07.269Z,97.4
2022-12-17T06:55:10.275Z,97.5
2022-12-17T06:57:14.234Z,97.4
2022-12-17T06:58:16.241Z,97.6
2022-12-17T06:59:18.274Z,97.6
2022-12-17T07:00:22.238Z,97.6
2022-12-17T07:01:24.464Z,97.5
2022-12-17T07:02:27.384Z,97.4
2022-12-17T07:03:29.372Z,97.4
2022-12-17T07:04:31.263Z,97.3
2022-12-17T07:05:33.243Z,97.3
2022-12-17T07:06:35.253Z,97.3
2022-12-17T07:07:37.254Z,97.4
2022-12-17T07:08:39.248Z,97.4
2022-12-17T07:09:41.261Z,97.2
2022-12-17T07:10:43.247Z,96.8
2022-12-17T07:11:45.456Z,96.4
2022-12-17T07:12:47.253Z,96.2
2022-12-17T07:13:49.254Z,96.1
2022-12-17T07:14:51.246Z,96.1
2022-12-17T07:15:53.273Z,96.3
2022-12-17T07:16:55.288Z,96.5
2022-12-17T07:17:58.251Z,96.4
2022-12-17T07:19:00.665Z,96.3
2022-12-17T07:20:02.298Z,96.3
2022-12-17T07:48:13.821Z,96.4
2022-12-17T07:49:15.165Z,96.4
2022-12-17T07:50:17.162Z,96.5
2022-12-17T07:52:22.170Z,96.6
2022-12-17T07:53:26.195Z,96.7
2022-12-17T07:54:28.194Z,96.7
2022-12-17T07:55:30.173Z,96.7
2022-12-17T07:56:32.193Z,96.7
2022-12-17T07:57:34.170Z,96.6
2022-12-17T07:58:36.205Z,96.7
2022-12-17T07:59:38.177Z,96.9
2022-12-17T08:00:44.677Z,97
2022-12-17T08:01:42.341Z,97.1
2022-12-17T08:02:44.399Z,96.9
2022-12-17T08:03:46.327Z,96.9
2022-12-17T08:05:50.181Z,96.7
2022-12-17T08:06:56.622Z,96.7
2022-12-17T08:07:54.170Z,96.8
2022-12-17T08:08:56.181Z,96.7
2022-12-17T08:09:58.185Z,96.6
2022-12-17T08:11:00.179Z,96.5
2022-12-17T08:12:02.206Z,96.4
2022-12-17T08:13:04.642Z,96.4
2022-12-17T08:14:06.185Z,96.5
2022-12-17T08:22:30.922Z,96
2022-12-17T08:24:34.919Z,96
2022-12-17T08:25:36.902Z,95.9
2022-12-17T08:26:42.048Z,95.8
2022-12-17T08:27:40.903Z,95.8
2022-12-17T08:29:03.144Z,95.8
2022-12-17T08:30:03.168Z,95.7
2022-12-17T08:31:03.171Z,95.7
2022-12-17T08:33:03.187Z,95.6
2022-12-17T08:34:07.731Z,95.6
2022-12-17T08:35:17.162Z,95.7
2022-12-17T08:36:03.137Z,95.7
2022-12-17T08:39:03.170Z,95.7
2022-12-17T08:40:08.938Z,95.9
2022-12-17T08:41:10.902Z,96.1
2022-12-17T08:42:12.935Z,96.1
2022-12-17T08:44:17.184Z,95.8
2022-12-17T08:45:03.179Z,95.8
2022-12-17T08:47:40.649Z,95.8
2022-12-17T08:49:17.188Z,95.5
2022-12-17T08:50:47.213Z,95.3
2022-12-17T08:52:35.322Z,95
2022-12-17T08:54:39.438Z,95.2
2022-12-17T08:55:41.405Z,95.5
2022-12-17T08:56:43.442Z,95.2
2022-12-17T08:57:45.408Z,95
2022-12-17T08:59:51.834Z,95
2022-12-17T09:27:21.758Z,94.2
2022-12-17T09:28:40.472Z,95.6
2022-12-17T09:29:29.404Z,95.5
2022-12-17T09:30:29.464Z,95.5
2022-12-17T09:31:43.010Z,95.5
2022-12-17T09:33:34.667Z,95.6
2022-12-17T09:34:36.245Z,95.5
2022-12-17T09:35:38.246Z,95.6
2022-12-17T09:36:44.221Z,95.6
2022-12-17T09:37:43.240Z,95.5
2022-12-17T09:38:45.243Z,95.6
2022-12-17T09:39:47.237Z,95.6
2022-12-17T09:40:49.246Z,95.6
2022-12-17T09:41:51.290Z,95.5
2022-12-17T09:42:59.518Z,95.4
2022-12-17T09:44:27.287Z,95.4
2022-12-17T09:45:14.243Z,95.3
2022-12-17T09:46:16.331Z,95.3
2022-12-17T09:47:18.284Z,95.3
2022-12-17T09:48:20.298Z,95.5
2022-12-17T09:49:22.252Z,95.8
2022-12-17T09:50:25.259Z,95.7
2022-12-17T09:51:29.419Z,95.6
2022-12-17T09:54:35.121Z,95.6
2022-12-17T10:07:13.984Z,96
2022-12-17T10:07:14.470Z,96
2022-12-17T10:10:26.714Z,96.5
2022-12-17T10:17:12.330Z,96
2022-12-17T10:17:12.391Z,95.9
2022-12-17T10:19:00.605Z,96.4
2022-12-17T10:21:04.619Z,96.6
2022-12-17T10:22:06.644Z,96.6
2022-12-17T10:23:08.663Z,97
2022-12-17T10:24:15.418Z,97.6
2022-12-17T10:25:23.552Z,97.2
2022-12-17T10:26:15.635Z,96.9
2022-12-17T10:28:32.363Z,95.7
2022-12-17T10:30:27.294Z,95.6
2022-12-17T10:31:29.353Z,95.2
2022-12-17T10:32:31.301Z,95.2
2022-12-17T10:33:33.514Z,95.2
2022-12-17T10:34:35.287Z,94.9
2022-12-17T10:35:37.289Z,94.3
2022-12-17T10:42:39.391Z,92.8
2022-12-17T10:42:39.859Z,92.8
2022-12-17T10:43:41.987Z,92.7
2022-12-17T10:44:43.991Z,92.5
2022-12-17T10:45:45.985Z,92.7
2022-12-17T10:46:48.043Z,92
2022-12-17T10:47:50.027Z,91.8
2022-12-17T10:48:51.986Z,91.8
2022-12-17T10:49:53.978Z,91.6
2022-12-17T10:50:55.983Z,91.6
2022-12-17T10:51:57.987Z,91.5
2022-12-17T10:53:31.869Z,91.4
2022-12-17T10:54:31.851Z,91.1
2022-12-17T10:56:31.905Z,90.8
2022-12-17T10:57:31.853Z,90.6
2022-12-17T10:58:31.868Z,90.3
2022-12-17T11:00:15.993Z,90.3
2022-12-17T11:01:18.139Z,90
2022-12-17T11:02:20.206Z,89.7
2022-12-17T11:03:22.042Z,89.5
2022-12-17T11:04:24.013Z,89.5
2022-12-17T11:05:26.006Z,89.5
2022-12-17T11:06:28.008Z,89.9
2022-12-17T11:10:37.040Z,89.1
2022-12-17T11:14:31.784Z,88.2
2022-12-17T11:15:31.754Z,87.7
2022-12-17T11:16:31.855Z,87.7
2022-12-17T11:17:31.764Z,87.5
2022-12-17T11:18:31.770Z,87.6
2022-12-17T11:19:31.770Z,87.9
2022-12-17T11:20:31.767Z,87.9
2022-12-17T11:21:31.764Z,87.8
2022-12-17T11:22:31.773Z,87.9
2022-12-17T11:23:31.775Z,88.2
2022-12-17T11:24:31.796Z,88
2022-12-17T11:25:31.771Z,87.7
2022-12-17T11:26:31.770Z,87.5
2022-12-17T11:27:31.759Z,87.5
2022-12-17T11:28:31.763Z,87.4
2022-12-17T11:29:31.831Z,87.7
2022-12-17T11:30:31.791Z,87.9
2022-12-17T11:31:31.868Z,87.9
2022-12-17T11:32:31.774Z,87.9
2022-12-17T11:33:31.770Z,87.9
2022-12-17T11:34:31.772Z,88.1
2022-12-17T11:35:31.801Z,88.2
2022-12-17T11:36:38.249Z,88.2
2022-12-17T11:37:33.147Z,87.6
2022-12-17T11:38:35.491Z,87.9
2022-12-17T11:53:35.572Z,87.4
2022-12-17T11:53:36.028Z,87.3
2022-12-17T11:54:34.941Z,86.7
2022-12-17T11:55:36.938Z,86.7
2022-12-17T11:56:38.939Z,86.7
2022-12-17T11:57:40.945Z,86.7
2022-12-17T11:58:42.962Z,86.4
2022-12-17T11:59:49.472Z,86.4
2022-12-17T12:00:46.958Z,86.6
2022-12-17T12:01:49.053Z,86.4
2022-12-17T12:02:51.104Z,86.4
2022-12-17T12:03:53.029Z,85.8
2022-12-17T12:04:54.955Z,85.8
2022-12-17T12:05:57.163Z,86.1
2022-12-17T12:06:58.939Z,86
2022-12-17T12:08:02.067Z,85.9
2022-12-17T12:09:03.003Z,86
2022-12-17T12:10:04.957Z,86
2022-12-17T12:11:06.952Z,86.2
2022-12-17T12:12:08.946Z,86
2022-12-17T12:13:10.972Z,86
2022-12-17T12:15:25.413Z,86
2022-12-17T12:18:31.411Z,85.7
2022-12-17T12:19:47.520Z,85.8
2022-12-17T12:20:35.405Z,85.8
2022-12-17T12:21:37.414Z,86
2022-12-17T12:22:52.454Z,85.9
2022-12-17T12:23:52.464Z,85.9
2022-12-17T12:25:52.506Z,86.2
2022-12-17T12:26:52.455Z,86.4
2022-12-17T12:28:52.559Z,85.9
2022-12-17T12:32:02.267Z,86.5
2022-12-17T12:33:09.656Z,86.6
2022-12-17T12:34:06.167Z,86.7
2022-12-17T12:35:52.481Z,86.6
2022-12-17T12:36:52.476Z,87
2022-12-17T12:37:52.467Z,87
2022-12-17T12:38:52.494Z,87.3
2022-12-17T12:40:32.956Z,87.3
2022-12-17T12:43:11.577Z,86.8
2022-12-17T12:43:42.541Z,86.6
2022-12-17T12:44:48.340Z,86.7
2022-12-17T12:45:46.650Z,86.7
2022-12-17T12:46:48.547Z,86.9
2022-12-17T12:48:52.530Z,87
2022-12-17T12:49:54.561Z,87.2
2022-12-17T12:51:59.174Z,87.2
2022-12-17T12:53:01.498Z,87.3
2022-12-17T12:54:03.150Z,87.1
2022-12-17T12:55:05.165Z,87.1
2022-12-17T12:56:07.169Z,87.1
2022-12-17T12:57:10.179Z,87.1
2022-12-17T12:58:12.140Z,87.1
2022-12-17T13:00:16.165Z,87.3
2022-12-17T13:01:18.241Z,87.3
2022-12-17T13:02:21.407Z,87.4
2022-12-17T13:03:28.269Z,87.3
2022-12-17T13:04:25.208Z,87.4
2022-12-17T13:05:27.150Z,87.5
2022-12-17T13:06:29.161Z,87.3
2022-12-17T13:07:32.219Z,87.3
2022-12-17T13:08:34.467Z,87.5
2022-12-17T13:09:37.196Z,87.9
2022-12-17T13:10:40.155Z,87.5
2022-12-17T13:11:42.166Z,87.4
2022-12-17T13:12:45.120Z,87.3
2022-12-17T13:16:05.599Z,87.1
2022-12-17T13:16:54.629Z,87
2022-12-17T13:17:59.132Z,86.9
2022-12-17T13:19:01.093Z,87.1
2022-12-17T13:20:04.106Z,87.2
2022-12-17T13:21:06.095Z,87.3
2022-12-17T13:22:08.091Z,87.3
2022-12-17T13:23:10.147Z,87.4
2022-12-17T13:24:13.088Z,87.3
2022-12-17T13:26:17.238Z,87.5
2022-12-17T13:27:19.233Z,87.5
2022-12-17T13:29:24.445Z,87.7
2022-12-17T13:30:26.222Z,87.6
2022-12-17T13:31:28.347Z,87.6
2022-12-17T13:32:30.219Z,87.8
2022-12-17T13:33:33.248Z,87.9
2022-12-17T14:13:29.716Z,90.2
2022-12-17T14:14:12.406Z,90.2
2022-12-17T14:15:14.421Z,90.3
2022-12-17T14:16:16.499Z,90.3
2022-12-17T14:20:07.311Z,90.1
2022-12-17T14:21:23.882Z,90.2
2022-12-17T14:27:42.131Z,90.5
2022-12-17T14:29:46.048Z,90.6
2022-12-17T14:31:24.267Z,90.5
2022-12-17T14:31:50.113Z,90.4
2022-12-17T14:32:52.082Z,90.4
2022-12-17T14:33:54.049Z,90.4
2022-12-17T14:35:00.548Z,90.5
2022-12-17T14:35:58.051Z,90.5
2022-12-17T14:37:00.078Z,90.5
2022-12-17T14:39:04.070Z,90.9
2022-12-17T14:40:06.062Z,90.8
2022-12-17T14:41:08.045Z,90.7
2022-12-17T14:43:12.454Z,90.7
2022-12-17T14:45:45.760Z,91.1
2022-12-17T14:47:55.432Z,91
2022-12-17T14:49:24.374Z,91.6
2022-12-17T14:50:26.114Z,91.5
2022-12-17T14:51:28.101Z,91.4
2022-12-17T14:52:30.107Z,91.4
2022-12-17T14:53:32.098Z,91.4
2022-12-17T14:54:35.102Z,91.6
2022-12-17T14:55:37.116Z,91.8
2022-12-17T14:56:39.109Z,91.6
2022-12-17T14:57:41.110Z,91.3
2022-12-17T14:58:43.148Z,91.2
2022-12-17T15:01:55.972Z,91.4
2022-12-17T15:02:54.338Z,91.4
2022-12-17T15:03:56.188Z,91.4
2022-12-17T15:04:58.128Z,91.4
2022-12-17T15:06:00.106Z,91.8
2022-12-17T15:07:02.115Z,92.3
2022-12-17T15:08:04.115Z,91.9
2022-12-17T15:09:06.159Z,91.5
2022-12-17T15:10:08.116Z,91.3
2022-12-17T15:11:10.110Z,91.4
2022-12-17T15:12:13.271Z,91.5
2022-12-17T15:13:16.271Z,91.6
2022-12-17T15:14:18.339Z,91.7
2022-12-17T15:16:25.066Z,91.8
2022-12-17T15:17:59.325Z,92
2022-12-17T15:18:29.294Z,92
2022-12-17T15:19:32.342Z,92
2022-12-17T15:20:34.331Z,92.3
2022-12-17T15:21:36.295Z,92.7
2022-12-17T15:22:39.291Z,92.9
2022-12-17T15:23:41.279Z,93.2
2022-12-17T15:24:43.366Z,93.3
2022-12-17T15:25:47.046Z,93.6
2022-12-17T15:26:47.285Z,93.7
2022-12-17T15:27:49.292Z,93.7
2022-12-17T15:28:51.297Z,93.8
2022-12-17T15:29:53.334Z,93.9
2022-12-17T15:30:55.383Z,94
2022-12-17T15:31:57.298Z,94.1
2022-12-17T15:33:12.229Z,94.5
2022-12-17T15:34:14.215Z,94.7
2022-12-17T15:40:39.864Z,94
2022-12-17T15:40:40.341Z,94.1
2022-12-17T15:41:05.583Z,93.9
2022-12-17T15:42:45.604Z,93.8
2022-12-17T15:44:49.574Z,94
2022-12-17T15:45:51.700Z,94.1
2022-12-17T15:47:06.409Z,94
2022-12-17T15:51:01.630Z,93.8
2022-12-17T15:53:21.723Z,93.8
2022-12-17T15:54:23.760Z,93.8
2022-12-17T15:55:25.718Z,93.9
2022-12-17T15:56:27.714Z,94
2022-12-17T15:57:29.719Z,94
2022-12-17T15:58:31.715Z,94.1
2022-12-17T15:59:33.725Z,94.2
2022-12-17T16:00:35.716Z,94.2
2022-12-17T16:01:37.883Z,94.5
2022-12-17T16:02:39.810Z,94.4
2022-12-17T16:03:41.852Z,94.2
2022-12-17T16:04:43.759Z,94.1
2022-12-17T16:05:45.712Z,94.1
2022-12-17T16:06:47.736Z,94.1
2022-12-17T16:07:49.724Z,94.5
2022-12-17T16:08:51.916Z,94
2022-12-17T16:09:53.801Z,93.8
2022-12-17T16:10:55.729Z,93.7
2022-12-17T16:11:57.756Z,93.8
2022-12-17T16:12:59.733Z,93.6
2022-12-17T16:14:01.728Z,93.8
2022-12-17T16:15:03.727Z,93.9
2022-12-17T16:16:06.775Z,94.1
2022-12-17T16:17:08.757Z,94.3
2022-12-17T16:19:12.728Z,94.4
2022-12-17T16:21:05.615Z,94.5
2022-12-17T16:22:20.909Z,94.7
2022-12-17T16:23:22.744Z,94.9
2022-12-17T16:24:24.741Z,94.9
2022-12-17T16:26:05.731Z,95.1
2022-12-17T16:27:05.622Z,95.1
2022-12-17T16:28:05.650Z,95.2
2022-12-17T16:29:05.620Z,95.2
2022-12-17T16:30:05.734Z,95.3
2022-12-17T16:31:05.693Z,95.3
2022-12-17T16:32:05.634Z,95.3
2022-12-17T16:33:05.625Z,95.2
2022-12-17T16:34:05.652Z,95.1
2022-12-17T16:35:05.639Z,95.1
2022-12-17T16:36:05.640Z,95.4
2022-12-17T16:37:05.628Z,95.7
2022-12-17T16:38:05.629Z,95.2
2022-12-17T16:39:05.642Z,94.5
2022-12-17T16:40:05.661Z,94.3
2022-12-17T16:41:05.663Z,94.2
2022-12-17T16:42:05.631Z,94.1
2022-12-17T16:44:05.658Z,94.1
2022-12-17T16:45:06.800Z,94
2022-12-17T16:46:12.222Z,93.8
2022-12-17T16:47:10.744Z,94
2022-12-17T16:48:12.744Z,94.2
2022-12-17T16:49:14.784Z,94.3
2022-12-17T16:50:30.594Z,94.4
2022-12-17T16:51:24.453Z,94.5
2022-12-17T16:52:20.775Z,94.6
2022-12-17T16:53:22.754Z,94.6
2022-12-17T16:54:24.751Z,94.6
2022-12-17T16:55:26.800Z,94.5
2022-12-17T16:56:28.797Z,94.4
2022-12-17T16:57:30.751Z,94.5
2022-12-17T16:58:32.759Z,94.5
2022-12-17T16:59:34.751Z,94.6
2022-12-17T17:00:36.752Z,94.7
2022-12-17T17:01:38.969Z,94.6
2022-12-17T17:02:41.000Z,94.4
2022-12-17T17:04:44.769Z,94
2022-12-17T17:05:46.762Z,94.1
2022-12-17T17:06:48.790Z,94
2022-12-17T17:07:50.764Z,94
2022-12-17T17:08:52.789Z,94
2022-12-17T17:10:56.799Z,93.9
2022-12-17T17:11:58.827Z,93.7
2022-12-17T17:13:00.762Z,93.7
2022-12-17T17:14:05.650Z,93.8
2022-12-17T17:15:05.660Z,94.2
2022-12-17T17:16:07.011Z,94.6
2022-12-17T17:17:08.767Z,94.5
2022-12-17T17:18:10.758Z,94.2
2022-12-17T17:19:12.796Z,93.6
2022-12-17T17:20:14.804Z,93.3
2022-12-17T17:21:16.935Z,93.1
2022-12-17T17:22:18.797Z,92.7
2022-12-17T17:23:20.776Z,92.5
2022-12-17T17:24:22.765Z,92.5
2022-12-17T17:25:34.485Z,92.6
2022-12-17T17:26:26.823Z,92.6
2022-12-17T17:27:28.771Z,92.8
2022-12-17T17:28:30.788Z,93.2
2022-12-17T17:29:32.760Z,93.3
2022-12-17T17:30:34.781Z,93.4
2022-12-17T17:32:08.450Z,93.4
2022-12-17T17:32:38.823Z,93.6
2022-12-17T17:33:40.782Z,93.7
2022-12-17T17:35:44.773Z,93.8
2022-12-17T17:36:47.002Z,93.8
2022-12-17T17:37:48.776Z,94
2022-12-17T17:38:50.779Z,94.2